Time;durP1;ratioP1;P1;durP2;ratioP2;P2;SDS_P1;SDS_P2;PMS_P1;PMS_P2;Temp;Humidity;BMP_temperature;BMP_pressure;BME280_temperature;BME280_humidity;BME280_pressure;Samples;Min_cycle;Max_cycle;Signal;HPM_P1;HPM_P2
2022/03/05 00:00:40;;;;;;;21.08;14.48;;;-0.10;99.90;;;;;;4902921;28;90433;-31
2022/03/05 00:03:06;;;;;;;17.08;13.68;;;-0.10;99.90;;;;;;4902726;28;88960;-29
2022/03/05 00:05:32;;;;;;;24.77;15.13;;;-0.10;99.90;;;;;;4902334;28;89760;-32
2022/03/05 00:07:58;;;;;;;15.73;12.82;;;-0.20;99.90;;;;;;4950790;22;88938;-31
2022/03/05 00:10:24;;;;;;;19.60;13.50;;;-0.20;99.90;;;;;;4921522;28;90818;-32
2022/03/05 00:12:51;;;;;;;19.67;15.63;;;-0.20;99.90;;;;;;4921699;28;90830;-29
2022/03/05 00:15:18;;;;;;;16.25;14.45;;;-0.20;99.90;;;;;;4921808;28;89985;-30
2022/03/05 00:17:44;;;;;;;18.15;14.20;;;-0.20;99.90;;;;;;4921673;28;89653;-31
2022/03/05 00:20:10;;;;;;;16.45;13.27;;;-0.10;99.90;;;;;;4921437;28;90307;-31
2022/03/05 00:22:36;;;;;;;15.50;12.65;;;-0.10;99.90;;;;;;4921359;28;90682;-32
2022/03/05 00:25:03;;;;;;;19.63;14.85;;;-0.10;99.90;;;;;;4921626;28;90172;-30
2022/03/05 00:27:28;;;;;;;21.20;13.85;;;-0.10;99.90;;;;;;4921570;28;89154;-32
2022/03/05 00:29:54;;;;;;;19.40;13.68;;;-0.10;99.90;;;;;;4922394;28;90199;-29
2022/03/05 00:32:20;;;;;;;19.02;13.18;;;-0.10;99.90;;;;;;4920285;28;89515;-31
2022/03/05 00:34:45;;;;;;;16.08;11.82;;;-0.10;99.90;;;;;;4921408;28;90113;-29
2022/03/05 00:37:11;;;;;;;18.90;13.43;;;-0.20;99.90;;;;;;4921076;28;89401;-30
2022/03/05 00:39:37;;;;;;;19.55;12.07;;;-0.20;99.90;;;;;;4920962;28;90244;-34
2022/03/05 00:42:04;;;;;;;21.00;13.30;;;-0.30;99.90;;;;;;4921601;28;89785;-31
2022/03/05 00:44:30;;;;;;;23.15;12.75;;;-0.30;99.90;;;;;;4920511;28;89731;-32
2022/03/05 00:46:56;;;;;;;19.33;12.85;;;-0.30;99.90;;;;;;4921350;28;90136;-31
2022/03/05 00:49:22;;;;;;;18.40;13.30;;;-0.30;99.90;;;;;;4921402;28;90177;-29
2022/03/05 00:51:48;;;;;;;18.88;12.40;;;-0.30;99.90;;;;;;4921199;28;89759;-33
2022/03/05 00:54:13;;;;;;;11.85;10.23;;;-0.30;99.90;;;;;;4922205;28;90212;-28
2022/03/05 00:56:39;;;;;;;19.88;13.65;;;-0.20;99.90;;;;;;4920259;28;89566;-33
2022/03/05 00:59:05;;;;;;;16.75;11.98;;;-0.10;99.90;;;;;;4920800;28;90233;-31
2022/03/05 01:01:30;;;;;;;16.23;11.57;;;-0.10;99.90;;;;;;4920045;28;89932;-31
2022/03/05 01:03:56;;;;;;;14.75;12.55;;;-0.20;99.90;;;;;;4920556;28;90562;-28
2022/03/05 01:06:22;;;;;;;14.23;11.80;;;-0.20;99.90;;;;;;4921189;28;89637;-29
2022/03/05 01:08:48;;;;;;;17.48;11.75;;;-0.20;99.90;;;;;;4920595;28;90590;-29
2022/03/05 01:11:16;;;;;;;15.65;11.90;;;-0.20;99.90;;;;;;4921145;28;89567;-28
2022/03/05 01:13:45;;;;;;;15.82;11.70;;;-0.20;99.90;;;;;;4921297;28;89422;-28
2022/03/05 01:16:11;;;;;;;22.35;13.13;;;-0.10;99.90;;;;;;4921489;28;87833;-30
2022/03/05 01:18:37;;;;;;;16.05;11.05;;;-0.20;99.90;;;;;;4920387;28;89970;-29
2022/03/05 01:21:03;;;;;;;17.30;11.27;;;-0.20;99.90;;;;;;4920986;28;89737;-30
2022/03/05 01:23:29;;;;;;;13.55;10.63;;;-0.30;99.90;;;;;;4919932;28;89591;-32
2022/03/05 01:25:54;;;;;;;16.05;10.27;;;-0.30;99.90;;;;;;4920450;28;90095;-29
2022/03/05 01:28:20;;;;;;;13.57;10.02;;;-0.30;99.90;;;;;;4920636;28;91815;-30
2022/03/05 01:30:45;;;;;;;13.75;12.32;;;-0.30;99.90;;;;;;4920529;28;89939;-31
2022/03/05 01:33:15;;;;;;;19.65;12.98;;;-0.20;99.90;;;;;;4920446;28;89316;-32
2022/03/05 01:35:41;;;;;;;13.68;9.73;;;-0.20;99.90;;;;;;4919950;28;89544;-31
2022/03/05 01:38:07;;;;;;;12.75;9.68;;;-0.20;99.90;;;;;;4921313;28;90318;-30
2022/03/05 01:40:33;;;;;;;12.98;10.45;;;-0.10;99.90;;;;;;4920999;28;89607;-33
2022/03/05 01:42:58;;;;;;;15.25;10.00;;;-0.10;99.90;;;;;;4920207;28;90494;-30
2022/03/05 01:45:25;;;;;;;14.52;10.50;;;-0.10;99.90;;;;;;4920151;28;89009;-31
2022/03/05 01:47:51;;;;;;;9.90;8.18;;;-0.10;99.90;;;;;;4920381;28;90233;-29
2022/03/05 01:50:16;;;;;;;11.55;9.70;;;-0.20;99.90;;;;;;4920237;28;90579;-29
2022/03/05 01:52:42;;;;;;;11.23;9.40;;;-0.20;99.90;;;;;;4920754;28;90459;-29
2022/03/05 01:55:08;;;;;;;18.98;11.55;;;-0.20;99.90;;;;;;4920875;28;89077;-33
2022/03/05 01:57:33;;;;;;;12.43;10.10;;;-0.20;99.90;;;;;;4918664;28;90415;-34
2022/03/05 02:00:00;;;;;;;15.68;10.55;;;-0.20;99.90;;;;;;4920218;28;90191;-29
2022/03/05 02:02:25;;;;;;;11.57;7.85;;;-0.20;99.90;;;;;;4919684;28;89479;-31
2022/03/05 02:04:51;;;;;;;13.98;8.45;;;-0.20;99.90;;;;;;4921398;28;90192;-30
2022/03/05 02:07:17;;;;;;;14.82;11.38;;;-0.10;99.90;;;;;;4919827;28;90439;-29
2022/03/05 02:09:42;;;;;;;15.23;9.77;;;-0.20;99.90;;;;;;4920071;28;89775;-33
2022/03/05 02:12:08;;;;;;;12.85;9.77;;;-0.20;99.90;;;;;;4920816;28;89745;-31
2022/03/05 02:14:34;;;;;;;11.73;8.32;;;-0.20;99.90;;;;;;4919944;28;89204;-29
2022/03/05 02:17:00;;;;;;;12.73;8.73;;;-0.20;99.90;;;;;;4920879;28;90326;-32
2022/03/05 02:19:26;;;;;;;13.60;7.95;;;-0.20;99.90;;;;;;4919750;28;88769;-33
2022/03/05 02:21:51;;;;;;;11.73;9.15;;;-0.20;99.90;;;;;;4920993;28;89449;-28
2022/03/05 02:24:31;;;;;;;13.02;10.30;;;-0.10;99.90;;;;;;4921369;28;87874;-29
2022/03/05 02:27:02;;;;;;;11.40;8.85;;;-0.10;99.90;;;;;;4919978;28;90271;-29
2022/03/05 02:29:30;;;;;;;13.35;8.77;;;-0.10;99.90;;;;;;4920669;28;89675;-32
2022/03/05 02:31:55;;;;;;;15.68;9.35;;;-0.10;99.90;;;;;;4921052;28;89304;-31
2022/03/05 02:34:21;;;;;;;14.38;10.70;;;-0.20;99.90;;;;;;4919868;28;88706;-32
2022/03/05 02:36:47;;;;;;;11.80;9.13;;;-0.10;99.90;;;;;;4920611;28;91136;-31
2022/03/05 02:39:13;;;;;;;13.85;10.90;;;-0.10;99.90;;;;;;4919403;28;91733;-34
2022/03/05 02:41:39;;;;;;;14.20;9.43;;;-0.20;99.90;;;;;;4919409;28;91423;-33
2022/03/05 02:44:04;;;;;;;15.25;8.32;;;-0.20;99.90;;;;;;4920806;28;88301;-33
2022/03/05 02:46:30;;;;;;;16.98;10.70;;;-0.10;99.90;;;;;;4919764;28;90451;-34
2022/03/05 02:48:56;;;;;;;12.55;9.15;;;-0.10;99.90;;;;;;4919952;28;89500;-32
2022/03/05 02:51:22;;;;;;;14.25;9.55;;;-0.20;99.90;;;;;;4920068;28;89582;-32
2022/03/05 02:53:48;;;;;;;14.20;9.40;;;-0.20;99.90;;;;;;4920344;28;88975;-35
2022/03/05 02:56:14;;;;;;;13.20;8.70;;;-0.20;99.90;;;;;;4923209;28;90368;-31
2022/03/05 02:58:40;;;;;;;12.68;9.70;;;-0.20;99.90;;;;;;4922707;28;90134;-32
2022/03/05 03:01:06;;;;;;;14.57;10.18;;;-0.20;99.90;;;;;;4923996;28;89999;-33
2022/03/05 03:03:31;;;;;;;24.25;10.40;;;-0.20;99.90;;;;;;4921575;28;88680;-34
2022/03/05 03:05:57;;;;;;;15.77;9.95;;;-0.20;99.90;;;;;;4922542;28;90257;-36
2022/03/05 03:08:22;;;;;;;22.27;10.75;;;-0.30;99.90;;;;;;4922938;28;92509;-33
2022/03/05 03:10:48;;;;;;;13.05;8.57;;;-0.20;99.90;;;;;;4922186;28;89490;-36
2022/03/05 03:13:14;;;;;;;16.20;9.73;;;-0.30;99.90;;;;;;4924081;28;89097;-30
2022/03/05 03:15:39;;;;;;;18.08;9.27;;;-0.20;99.90;;;;;;4922835;28;90303;-32
2022/03/05 03:18:05;;;;;;;19.77;11.68;;;-0.30;99.90;;;;;;4923679;28;90362;-34
2022/03/05 03:20:31;;;;;;;14.18;9.43;;;-0.20;99.90;;;;;;4921949;28;89330;-33
2022/03/05 03:22:57;;;;;;;15.48;11.07;;;-0.30;99.90;;;;;;4923247;28;88383;-29
2022/03/05 03:25:23;;;;;;;14.15;8.55;;;-0.30;99.90;;;;;;4923016;28;90518;-30
2022/03/05 03:27:49;;;;;;;11.43;9.52;;;-0.20;99.90;;;;;;4922311;28;90681;-31
2022/03/05 03:30:16;;;;;;;15.30;8.93;;;-0.30;99.90;;;;;;4922977;28;89554;-32
2022/03/05 03:32:42;;;;;;;12.63;9.35;;;-0.30;99.90;;;;;;4923347;28;88119;-29
2022/03/05 03:35:09;;;;;;;15.32;9.45;;;-0.30;99.90;;;;;;4922443;28;90211;-34
2022/03/05 03:37:36;;;;;;;13.57;9.40;;;-0.30;99.90;;;;;;4922374;28;90198;-33
2022/03/05 03:40:04;;;;;;;12.27;9.20;;;-0.40;99.90;;;;;;4922435;28;88701;-30
2022/03/05 03:42:30;;;;;;;;;;;-0.40;99.90;;;;;;4923524;28;89702;-29
2022/03/05 03:44:55;;;;;;;15.77;9.57;;;-0.40;99.90;;;;;;4924140;28;91395;-29
2022/03/05 03:47:22;;;;;;;8.18;7.32;;;-0.40;99.90;;;;;;4922973;28;89540;-28
2022/03/05 03:49:47;;;;;;;15.25;8.80;;;-0.30;99.90;;;;;;4922358;28;89396;-31
2022/03/05 03:52:13;;;;;;;11.43;8.82;;;-0.20;99.90;;;;;;4922224;28;88943;-30
2022/03/05 03:54:40;;;;;;;16.85;9.77;;;-0.30;99.90;;;;;;4922119;28;90338;-30
2022/03/05 03:57:06;;;;;;;12.98;9.32;;;-0.30;99.90;;;;;;4922273;28;89733;-31
2022/03/05 03:59:31;;;;;;;15.30;10.35;;;-0.30;99.90;;;;;;4922706;28;89350;-32
2022/03/05 04:01:57;;;;;;;12.00;7.90;;;-0.20;99.90;;;;;;4921713;28;87862;-30
2022/03/05 04:04:23;;;;;;;14.75;11.18;;;-0.20;99.90;;;;;;4922435;28;90427;-30
2022/03/05 04:09:32;;;;;;;12.35;8.50;;;-0.30;99.90;;;;;;4922241;28;89979;-30
2022/03/05 04:11:58;;;;;;;12.23;8.82;;;-0.20;99.90;;;;;;4922650;28;89897;-29
2022/03/05 04:14:23;;;;;;;14.77;10.57;;;-0.30;99.90;;;;;;4921394;28;90172;-31
2022/03/05 04:16:49;;;;;;;15.35;10.90;;;-0.20;99.90;;;;;;4921681;28;90606;-30
2022/03/05 04:19:14;;;;;;;13.90;11.10;;;-0.20;99.90;;;;;;4921518;28;90562;-28
2022/03/05 04:21:40;;;;;;;10.43;6.47;;;-0.20;99.90;;;;;;4921724;28;89457;-29
2022/03/05 04:24:05;;;;;;;15.13;9.27;;;-0.20;99.90;;;;;;4921689;28;89050;-30
2022/03/05 04:26:31;;;;;;;13.63;9.02;;;-0.20;99.90;;;;;;4920670;28;90513;-33
2022/03/05 04:28:57;;;;;;;12.52;8.73;;;-0.20;99.90;;;;;;4921871;28;89702;-29
2022/03/05 04:31:22;;;;;;;21.50;9.38;;;-0.30;99.90;;;;;;4922392;28;89452;-32
2022/03/05 04:33:48;;;;;;;14.63;8.73;;;-0.30;99.90;;;;;;4922533;28;90697;-29
2022/03/05 04:36:13;;;;;;;12.57;10.68;;;-0.40;99.90;;;;;;4921638;28;90106;-29
2022/03/05 04:38:39;;;;;;;12.88;9.43;;;-0.40;99.90;;;;;;4920986;28;89775;-28
2022/03/05 04:41:05;;;;;;;14.73;9.60;;;-0.50;99.90;;;;;;4921502;28;89229;-29
2022/03/05 04:43:31;;;;;;;15.73;10.55;;;-0.60;99.90;;;;;;4921718;28;90504;-31
2022/03/05 04:45:57;;;;;;;15.43;12.10;;;-0.60;99.90;;;;;;4921662;28;89680;-31
2022/03/05 04:48:23;;;;;;;17.15;9.77;;;-0.70;99.90;;;;;;4920724;28;89976;-31
2022/03/05 04:50:48;;;;;;;20.02;12.10;;;-0.70;99.90;;;;;;4922353;28;89258;-29
2022/03/05 04:53:19;;;;;;;15.65;11.95;;;-0.70;99.90;;;;;;4920718;28;90134;-33
2022/03/05 04:55:46;;;;;;;13.50;10.77;;;-0.80;99.90;;;;;;4921253;28;89849;-30
2022/03/05 04:58:11;;;;;;;12.73;10.30;;;-0.70;99.90;;;;;;4921160;28;89641;-28
2022/03/05 05:00:37;;;;;;;16.65;10.77;;;-0.70;99.90;;;;;;4920457;28;89719;-29
2022/03/05 05:03:03;;;;;;;15.05;10.02;;;-0.80;99.90;;;;;;4920792;28;90121;-29
2022/03/05 05:05:28;;;;;;;12.82;10.23;;;-0.80;99.90;;;;;;4920269;28;90705;-35
2022/03/05 05:07:54;;;;;;;19.38;11.55;;;-0.90;99.90;;;;;;4920350;28;91096;-31
2022/03/05 05:10:20;;;;;;;14.80;10.15;;;-1.00;99.90;;;;;;4920479;28;89058;-34
2022/03/05 05:12:45;;;;;;;16.05;12.05;;;-1.10;99.90;;;;;;4921153;28;89300;-30
2022/03/05 05:15:11;;;;;;;15.52;11.57;;;-1.10;99.90;;;;;;4920503;28;89876;-28
2022/03/05 05:17:38;;;;;;;18.70;10.13;;;-1.10;99.90;;;;;;4920667;28;88882;-30
2022/03/05 05:20:05;;;;;;;14.93;10.07;;;-1.20;99.90;;;;;;4920890;28;89742;-31
2022/03/05 05:22:32;;;;;;;21.20;10.65;;;-1.20;99.90;;;;;;4920270;28;89174;-29
2022/03/05 05:24:58;;;;;;;16.52;11.02;;;-1.20;99.90;;;;;;4920636;28;89673;-31
2022/03/05 05:27:24;;;;;;;11.85;10.63;;;-1.30;99.90;;;;;;4920667;28;89536;-30
2022/03/05 05:29:50;;;;;;;19.45;10.15;;;-1.30;99.90;;;;;;4920146;28;89492;-27
2022/03/05 05:32:16;;;;;;;14.55;11.45;;;-1.30;99.90;;;;;;4920625;28;90089;-29
2022/03/05 05:34:42;;;;;;;13.95;11.57;;;-1.30;99.90;;;;;;4920485;28;89545;-29
2022/03/05 05:37:08;;;;;;;11.95;10.43;;;-1.40;99.90;;;;;;4920060;28;90154;-33
2022/03/05 05:39:34;;;;;;;17.45;10.55;;;-1.40;99.90;;;;;;4920763;28;88226;-29
2022/03/05 05:41:59;;;;;;;13.43;9.95;;;-1.40;99.90;;;;;;4920071;28;89061;-31
2022/03/05 05:44:25;;;;;;;14.57;10.77;;;-1.40;99.90;;;;;;4921491;28;89481;-33
2022/03/05 05:46:51;;;;;;;16.20;10.10;;;-1.40;99.90;;;;;;4920201;28;90148;-29
2022/03/05 05:49:17;;;;;;;15.55;10.65;;;-1.50;99.90;;;;;;4919935;28;89041;-29
2022/03/05 05:51:42;;;;;;;11.85;10.50;;;-1.50;99.90;;;;;;4920772;28;92154;-29
2022/03/05 05:54:08;;;;;;;14.95;10.80;;;-1.50;99.90;;;;;;4919443;28;90534;-31
2022/03/05 05:56:34;;;;;;;12.23;10.30;;;-1.50;99.90;;;;;;4920738;28;90603;-33
2022/03/05 05:59:00;;;;;;;13.27;11.98;;;-1.50;99.90;;;;;;4919923;28;89042;-31
2022/03/05 06:01:26;;;;;;;10.90;9.10;;;-1.50;99.90;;;;;;4918208;28;90154;-31
2022/03/05 06:03:52;;;;;;;14.05;10.57;;;-1.50;99.90;;;;;;4920896;28;90214;-33
2022/03/05 06:06:18;;;;;;;13.07;9.90;;;-1.40;99.90;;;;;;4919443;28;89813;-30
2022/03/05 06:08:44;;;;;;;15.80;10.35;;;-1.40;99.90;;;;;;4921081;28;89086;-31
2022/03/05 06:11:10;;;;;;;14.65;10.55;;;-1.40;99.90;;;;;;4919714;28;91454;-30
2022/03/05 06:13:35;;;;;;;17.33;11.63;;;-1.30;99.90;;;;;;4919609;28;89227;-31
2022/03/05 06:16:01;;;;;;;16.33;10.23;;;-1.20;99.90;;;;;;4920189;28;89728;-28
2022/03/05 06:18:27;;;;;;;11.70;9.98;;;-1.20;99.90;;;;;;4919592;28;90191;-29
2022/03/05 06:20:53;;;;;;;13.10;8.57;;;-1.20;99.90;;;;;;4920249;28;90334;-30
2022/03/05 06:23:18;;;;;;;14.25;10.55;;;-1.20;99.90;;;;;;4919896;28;89306;-28
2022/03/05 06:25:45;;;;;;;12.07;9.55;;;-1.20;99.90;;;;;;4919299;28;89925;-35
2022/03/05 06:28:10;;;;;;;15.00;10.80;;;-1.20;99.90;;;;;;4920788;28;88290;-31
2022/03/05 06:30:36;;;;;;;12.93;9.93;;;-1.20;99.90;;;;;;4920384;28;90232;-29
2022/03/05 06:33:02;;;;;;;19.63;10.38;;;-1.20;99.90;;;;;;4922805;28;90336;-29
2022/03/05 06:35:28;;;;;;;13.32;10.40;;;-1.10;99.90;;;;;;4922817;28;89482;-30
2022/03/05 06:37:54;;;;;;;15.20;10.50;;;-1.10;99.90;;;;;;4923051;28;89410;-34
2022/03/05 06:40:19;;;;;;;13.52;11.00;;;-1.20;99.90;;;;;;4922786;28;90385;-30
2022/03/05 06:42:45;;;;;;;14.30;11.48;;;-1.10;99.90;;;;;;4922578;28;90792;-30
2022/03/05 06:45:11;;;;;;;19.40;10.63;;;-1.10;99.90;;;;;;4923214;28;91362;-33
2022/03/05 06:47:40;;;;;;;15.85;11.23;;;-1.00;99.90;;;;;;4922459;28;88052;-33
2022/03/05 06:50:11;;;;;;;15.63;10.90;;;-1.00;99.90;;;;;;4922174;28;91146;-31
2022/03/05 06:52:37;;;;;;;15.77;10.77;;;-0.80;99.90;;;;;;4922204;28;90238;-33
2022/03/05 06:55:03;;;;;;;17.10;11.63;;;-0.70;99.90;;;;;;4923162;28;89640;-30
2022/03/05 06:57:30;;;;;;;14.35;10.90;;;-0.70;99.90;;;;;;4923317;28;89150;-31
2022/03/05 06:59:56;;;;;;;18.05;11.85;;;-0.70;99.90;;;;;;4922450;28;91193;-32
2022/03/05 07:02:22;;;;;;;18.50;10.55;;;-0.60;99.90;;;;;;4922901;28;88957;-34
2022/03/05 07:04:48;;;;;;;16.33;9.38;;;-0.60;99.90;;;;;;4922213;28;90914;-32
2022/03/05 07:07:13;;;;;;;17.10;9.95;;;-0.50;99.90;;;;;;4922910;28;89013;-30
2022/03/05 07:09:39;;;;;;;19.65;12.32;;;-0.40;99.90;;;;;;4923380;28;89637;-29
2022/03/05 07:12:06;;;;;;;15.35;12.52;;;-0.40;99.90;;;;;;4921903;28;89547;-30
2022/03/05 07:14:32;;;;;;;17.48;12.63;;;-0.40;99.90;;;;;;4922300;28;89658;-30
2022/03/05 07:16:57;;;;;;;18.55;11.93;;;-0.30;99.90;;;;;;4922950;28;90419;-30
2022/03/05 07:19:23;;;;;;;17.77;12.95;;;-0.20;99.90;;;;;;4915614;28;90785;-32
2022/03/05 07:21:49;;;;;;;18.77;12.10;;;-0.10;99.90;;;;;;4922345;28;89653;-31
2022/03/05 07:24:14;;;;;;;14.43;12.70;;;0.00;99.90;;;;;;4922690;28;90468;-31
2022/03/05 07:26:40;;;;;;;14.95;12.55;;;0.00;99.90;;;;;;4921820;28;89262;-34
2022/03/05 07:29:06;;;;;;;20.65;12.75;;;0.10;99.90;;;;;;4922610;28;90299;-30
2022/03/05 07:31:32;;;;;;;18.92;12.65;;;0.20;99.90;;;;;;4921453;28;90900;-31
2022/03/05 07:33:58;;;;;;;20.77;12.18;;;0.40;99.90;;;;;;4921728;28;90487;-32
2022/03/05 07:36:23;;;;;;;20.08;12.13;;;0.50;99.90;;;;;;4920809;28;88405;-32
2022/03/05 07:38:49;;;;;;;17.83;11.30;;;0.60;99.90;;;;;;4922172;28;90364;-32
2022/03/05 07:41:14;;;;;;;19.42;11.50;;;0.70;99.90;;;;;;4921743;28;90785;-33
2022/03/05 07:43:40;;;;;;;18.83;11.15;;;0.80;99.90;;;;;;4922143;28;89354;-30
2022/03/05 07:46:06;;;;;;;15.80;10.95;;;0.80;99.90;;;;;;4922084;28;88344;-30
2022/03/05 07:48:31;;;;;;;18.38;13.35;;;1.00;99.90;;;;;;4921891;28;90475;-33
2022/03/05 07:50:59;;;;;;;22.33;12.20;;;1.00;99.90;;;;;;4921764;28;89743;-31
2022/03/05 07:53:27;;;;;;;20.23;13.73;;;1.10;99.90;;;;;;4920750;28;89289;-30
2022/03/05 07:55:53;;;;;;;23.55;13.23;;;1.20;99.90;;;;;;4921646;28;89790;-34
2022/03/05 07:58:18;;;;;;;15.50;10.88;;;1.20;99.90;;;;;;4921610;28;90384;-34
2022/03/05 08:00:44;;;;;;;21.95;13.45;;;1.30;99.90;;;;;;4921300;28;89825;-31
2022/03/05 08:03:09;;;;;;;18.35;10.73;;;1.30;99.90;;;;;;4921159;28;89560;-32
2022/03/05 08:05:35;;;;;;;20.02;13.75;;;1.40;99.90;;;;;;4921716;28;89309;-29
2022/03/05 08:08:01;;;;;;;21.95;12.35;;;1.50;99.90;;;;;;4920717;28;90760;-31
2022/03/05 08:10:26;;;;;;;20.63;13.90;;;1.50;99.90;;;;;;4921563;28;89998;-30
2022/03/05 08:12:52;;;;;;;17.80;13.13;;;1.60;99.90;;;;;;4921630;28;89833;-31
2022/03/05 08:15:17;;;;;;;19.35;13.65;;;1.60;99.90;;;;;;4921905;28;89510;-36
2022/03/05 08:17:49;;;;;;;21.25;14.50;;;1.60;99.90;;;;;;4921701;28;89255;-33
2022/03/05 08:20:14;;;;;;;24.83;15.98;;;1.70;99.90;;;;;;4921402;28;90622;-34
2022/03/05 08:22:40;;;;;;;57.72;34.15;;;1.80;99.90;;;;;;4918654;28;90521;-32
2022/03/05 08:25:06;;;;;;;20.75;15.30;;;1.90;99.90;;;;;;4919377;28;88014;-33
2022/03/05 08:27:31;;;;;;;21.17;13.50;;;2.00;99.90;;;;;;4919248;28;90642;-30
2022/03/05 08:29:57;;;;;;;16.10;13.38;;;2.00;99.90;;;;;;4907931;28;89462;-32
2022/03/05 08:32:23;;;;;;;22.65;19.13;;;2.00;99.90;;;;;;4900416;28;90055;-29
2022/03/05 08:34:48;;;;;;;22.02;13.85;;;2.10;99.90;;;;;;4899325;28;88746;-33
2022/03/05 08:37:14;;;;;;;22.77;14.02;;;2.20;99.90;;;;;;4900359;28;91198;-33
2022/03/05 08:39:40;;;;;;;21.05;14.65;;;2.20;99.90;;;;;;4899175;28;89222;-32
2022/03/05 08:42:06;;;;;;;19.98;16.38;;;2.50;99.90;;;;;;4900094;28;90005;-33
2022/03/05 08:44:32;;;;;;;27.73;19.75;;;2.40;99.90;;;;;;4899758;28;88110;-31
2022/03/05 08:46:57;;;;;;;51.70;36.40;;;2.50;99.90;;;;;;4899471;28;90426;-32
2022/03/05 08:49:23;;;;;;;24.52;17.13;;;2.60;99.90;;;;;;4899370;28;90165;-34
2022/03/05 08:51:48;;;;;;;18.15;14.02;;;2.80;99.90;;;;;;4899759;28;90690;-36
2022/03/05 08:54:14;;;;;;;19.42;13.98;;;2.90;99.90;;;;;;4905741;28;88045;-32
2022/03/05 08:56:40;;;;;;;16.33;13.00;;;2.80;99.90;;;;;;4918561;28;90021;-32
2022/03/05 08:59:05;;;;;;;19.50;13.55;;;2.90;99.90;;;;;;4918518;28;90427;-33
2022/03/05 09:01:31;;;;;;;23.35;15.93;;;3.00;99.90;;;;;;4918567;28;94683;-31
2022/03/05 09:03:56;;;;;;;24.80;17.05;;;3.00;99.90;;;;;;4918584;28;89402;-32
2022/03/05 09:06:22;;;;;;;28.98;16.88;;;3.10;99.90;;;;;;4918087;28;90103;-34
2022/03/05 09:08:48;;;;;;;23.90;15.48;;;3.20;99.90;;;;;;4918193;28;90674;-30
2022/03/05 09:11:13;;;;;;;21.42;13.75;;;3.30;99.90;;;;;;4918986;28;89902;-35
2022/03/05 09:13:39;;;;;;;19.60;14.75;;;3.40;99.90;;;;;;4917932;28;88630;-34
2022/03/05 09:16:04;;;;;;;28.65;17.25;;;3.40;99.90;;;;;;4916785;28;91715;-33
2022/03/05 09:18:30;;;;;;;20.23;14.60;;;3.40;99.90;;;;;;4918618;28;90961;-32
2022/03/05 09:20:56;;;;;;;28.73;15.40;;;3.50;99.90;;;;;;4918223;28;89585;-33
2022/03/05 09:23:22;;;;;;;25.92;18.77;;;3.50;99.90;;;;;;4918452;28;89661;-34
2022/03/05 09:25:47;;;;;;;24.88;18.75;;;3.50;99.90;;;;;;4918100;28;90089;-32
2022/03/05 09:28:13;;;;;;;26.70;18.48;;;3.60;99.90;;;;;;4918923;28;89585;-32
2022/03/05 09:30:38;;;;;;;23.42;17.02;;;3.80;99.90;;;;;;4918113;28;93439;-31
2022/03/05 09:33:04;;;;;;;20.25;15.80;;;3.90;99.90;;;;;;4918652;28;89736;-32
2022/03/05 09:35:30;;;;;;;30.83;20.98;;;4.10;99.90;;;;;;4918710;28;90366;-32
2022/03/05 09:37:55;;;;;;;28.17;18.83;;;4.20;99.90;;;;;;4918552;28;89670;-31
2022/03/05 09:40:21;;;;;;;28.42;19.23;;;4.20;99.90;;;;;;4918442;28;89935;-34
2022/03/05 09:42:47;;;;;;;26.30;18.88;;;4.20;99.90;;;;;;4918500;28;88152;-31
2022/03/05 09:45:14;;;;;;;29.02;17.60;;;4.30;99.90;;;;;;4917049;28;91224;-34
2022/03/05 09:47:41;;;;;;;26.73;17.77;;;4.30;99.90;;;;;;4917880;28;88719;-30
2022/03/05 09:50:09;;;;;;;27.65;17.98;;;4.30;99.90;;;;;;4918177;28;89548;-33
2022/03/05 09:52:34;;;;;;;29.05;19.35;;;4.40;99.90;;;;;;4917727;28;88621;-30
2022/03/05 09:55:01;;;;;;;27.27;19.48;;;4.30;99.90;;;;;;4918940;28;89965;-32
2022/03/05 09:57:27;;;;;;;26.88;19.20;;;4.40;99.90;;;;;;4917155;28;90956;-31
2022/03/05 09:59:52;;;;;;;28.33;20.52;;;4.60;99.90;;;;;;4917491;28;90162;-35
2022/03/05 10:02:18;;;;;;;30.15;18.88;;;4.80;99.90;;;;;;4900844;28;89025;-31
2022/03/05 10:04:44;;;;;;;21.45;15.13;;;4.90;99.90;;;;;;4917421;28;89790;-29
2022/03/05 10:07:18;;;;;;;24.30;18.42;;;5.00;99.90;;;;;;4918659;28;89060;-30
2022/03/05 10:09:46;;;;;;;29.65;19.75;;;5.00;99.90;;;;;;4917800;28;89877;-32
2022/03/05 10:12:28;;;;;;;32.58;22.60;;;5.00;99.90;;;;;;4917661;28;89272;-31
2022/03/05 10:15:09;;;;;;;29.17;19.77;;;5.10;99.90;;;;;;4917815;28;91851;-33
2022/03/05 10:17:57;;;;;;;27.75;18.98;;;5.00;99.90;;;;;;4916668;28;89939;-31
2022/03/05 10:20:34;;;;;;;34.28;23.08;;;5.10;99.90;;;;;;4916951;28;91444;-31
2022/03/05 10:23:01;;;;;;;33.05;22.10;;;5.30;99.90;;;;;;4915277;28;90377;-31
2022/03/05 10:25:29;;;;;;;25.70;17.57;;;5.30;99.90;;;;;;4916607;28;90359;-33
2022/03/05 10:28:30;;;;;;;32.97;20.17;;;5.30;99.90;;;;;;4917214;28;89740;-34
2022/03/05 10:31:01;;;;;;;26.52;20.63;;;5.40;99.90;;;;;;4916902;28;89644;-33
2022/03/05 10:33:41;;;;;;;28.63;18.13;;;5.40;99.90;;;;;;4917423;28;89226;-31
2022/03/05 10:36:37;;;;;;;22.38;17.75;;;5.40;99.90;;;;;;4917387;28;89244;-31
2022/03/05 10:39:03;;;;;;;31.52;20.70;;;5.50;99.90;;;;;;4902979;28;89928;-32
2022/03/05 10:41:40;;;;;;;27.42;19.27;;;5.50;99.90;;;;;;4916313;28;89651;-32
2022/03/05 10:44:07;;;;;;;28.27;19.02;;;5.50;99.90;;;;;;4917775;28;89198;-30
2022/03/05 10:46:40;;;;;;;28.85;20.95;;;5.60;99.90;;;;;;4915892;28;89270;-31
2022/03/05 10:49:14;;;;;;;27.77;20.48;;;5.60;99.90;;;;;;4916883;28;90947;-30
2022/03/05 10:51:39;;;;;;;22.35;14.32;;;5.60;99.90;;;;;;4915998;28;90477;-32
2022/03/05 10:54:05;;;;;;;22.60;13.15;;;5.60;99.90;;;;;;4917059;28;88658;-33
2022/03/05 10:56:33;;;;;;;32.47;22.98;;;5.70;99.90;;;;;;4916430;28;91504;-33
2022/03/05 10:59:09;;;;;;;35.20;21.92;;;5.60;99.90;;;;;;4916569;28;90529;-32
2022/03/05 11:01:42;;;;;;;32.95;24.25;;;5.70;99.90;;;;;;4917148;28;89301;-32
2022/03/05 11:04:10;;;;;;;23.13;18.88;;;5.70;99.90;;;;;;4916621;28;89742;-32
2022/03/05 11:06:41;;;;;;;28.40;15.83;;;5.80;99.90;;;;;;4915372;28;90344;-31
2022/03/05 11:09:09;;;;;;;32.40;23.02;;;5.90;99.90;;;;;;4916558;28;89015;-30
2022/03/05 11:11:37;;;;;;;23.27;16.10;;;5.90;99.90;;;;;;4916314;28;89605;-33
2022/03/05 11:14:05;;;;;;;38.17;23.10;;;6.00;99.90;;;;;;4916706;28;89318;-34
2022/03/05 11:16:32;;;;;;;24.17;15.23;;;6.00;99.90;;;;;;4917191;28;90050;-35
2022/03/05 11:18:58;;;;;;;31.25;22.77;;;6.00;99.90;;;;;;4920039;28;89629;-33
2022/03/05 11:21:25;;;;;;;29.40;19.88;;;6.20;99.90;;;;;;4919724;28;89157;-32
2022/03/05 11:23:51;;;;;;;28.73;19.58;;;6.10;99.90;;;;;;4920628;28;89501;-36
2022/03/05 11:26:17;;;;;;;31.45;20.42;;;6.10;99.90;;;;;;4919423;28;90480;-43
2022/03/05 11:28:48;;;;;;;26.83;16.73;;;6.30;99.90;;;;;;4919801;28;89421;-39
2022/03/05 11:31:22;;;;;;;43.05;23.83;;;6.40;99.90;;;;;;4919970;28;89616;-42
2022/03/05 11:33:50;;;;;;;29.90;22.73;;;6.40;99.90;;;;;;4920519;28;90109;-38
2022/03/05 11:36:38;;;;;;;27.50;20.23;;;6.40;99.90;;;;;;4919772;28;90235;-44
2022/03/05 11:39:07;;;;;;;38.92;23.13;;;6.50;99.90;;;;;;4919263;28;90448;-37
2022/03/05 11:41:32;;;;;;;26.63;18.42;;;6.50;99.90;;;;;;4919165;28;90695;-40
2022/03/05 11:44:41;;;;;;;36.28;27.00;;;6.60;99.90;;;;;;4920145;28;89213;-34
2022/03/05 11:47:18;;;;;;;;;;;6.70;99.90;;;;;;4912445;28;90131;-40
2022/03/05 11:49:58;;;;;;;28.95;18.60;;;6.80;99.90;;;;;;4921798;28;89853;-43
2022/03/05 11:52:39;;;;;;;32.47;23.05;;;6.70;94.50;;;;;;4919167;28;89548;-39
2022/03/05 11:55:11;;;;;;;29.45;22.65;;;6.70;99.90;;;;;;4919099;28;88784;-42
2022/03/05 11:57:42;;;;;;;28.70;20.13;;;6.70;99.90;;;;;;4919365;28;90217;-44
2022/03/05 12:00:10;;;;;;;28.55;18.90;;;6.80;99.90;;;;;;4919894;28;89726;-36
2022/03/05 12:02:43;;;;;;;28.15;19.42;;;6.90;99.90;;;;;;4919507;28;89178;-36
2022/03/05 12:05:09;;;;;;;26.70;19.48;;;6.90;98.30;;;;;;4919446;28;90157;-39
2022/03/05 12:07:40;;;;;;;35.75;21.67;;;6.80;99.90;;;;;;4960435;22;90800;-31
2022/03/05 12:10:16;;;;;;;36.38;23.42;;;6.80;99.90;;;;;;4900577;28;89604;-30
2022/03/05 12:13:01;;;;;;;36.58;23.63;;;6.80;99.90;;;;;;4899526;28;90005;-33
2022/03/05 12:15:34;;;;;;;31.05;20.17;;;6.80;99.90;;;;;;4899990;28;88948;-31
2022/03/05 12:18:02;;;;;;;32.25;21.55;;;7.00;99.90;;;;;;4899509;28;90323;-30
2022/03/05 12:20:32;;;;;;;33.60;23.13;;;7.00;98.80;;;;;;4899277;28;89520;-32
2022/03/05 12:23:07;;;;;;;33.17;23.45;;;7.10;96.10;;;;;;4899919;28;89670;-32
2022/03/05 12:25:37;;;;;;;33.15;22.70;;;7.00;99.90;;;;;;4900226;28;88970;-31
2022/03/05 12:28:11;;;;;;;34.15;25.48;;;7.00;99.90;;;;;;4898447;28;90035;-32
2022/03/05 12:30:38;;;;;;;32.90;23.00;;;7.00;99.90;;;;;;4898887;28;90400;-34
2022/03/05 12:33:09;;;;;;;32.15;24.52;;;7.20;97.20;;;;;;4900201;28;90702;-33
2022/03/05 12:35:36;;;;;;;34.58;24.45;;;7.20;94.30;;;;;;4899537;28;87875;-31